createdAt,value
2022-08-09T00:00:23.400Z,101817.88
2022-08-09T00:02:52.580Z,101818.16
2022-08-09T00:06:15.846Z,101817.53
2022-08-09T00:08:12.914Z,101818.13
2022-08-09T00:11:00.871Z,101816.19
2022-08-09T00:13:33.611Z,101809.16
2022-08-09T00:16:06.577Z,101811.66
2022-08-09T00:18:35.998Z,101808.22
2022-08-09T00:21:07.698Z,101806.50
2022-08-09T00:23:58.117Z,101807.25
2022-08-09T00:26:32.678Z,101802.06
2022-08-09T00:29:02.611Z,101802.19
2022-08-09T00:31:59.704Z,101804.97
2022-08-09T00:34:19.801Z,101805.97
2022-08-09T00:36:48.881Z,101800.81
2022-08-09T00:40:13.770Z,101806.44
2022-08-09T00:44:16.200Z,101803.91
2022-08-09T00:44:54.808Z,101804.22
2022-08-09T00:47:24.784Z,101804.53
2022-08-09T00:49:54.864Z,101806.22
2022-08-09T00:52:30.583Z,101802.75
2022-08-09T00:55:00.953Z,101804.69
2022-08-09T00:57:34.887Z,101806.53
2022-08-09T01:00:21.540Z,101812.84
2022-08-09T01:20:03.191Z,101820.75
2022-08-09T01:23:02.224Z,101814.66
2022-08-09T01:25:48.974Z,101819.94
2022-08-09T01:28:22.407Z,101808.38
2022-08-09T01:30:58.274Z,101813.75
2022-08-09T01:33:30.762Z,101805.91
2022-08-09T01:36:03.077Z,101810.41
2022-08-09T01:38:35.822Z,101802.03
2022-08-09T01:41:11.918Z,101809.31
2022-08-09T01:43:51.683Z,101807.69
2022-08-09T01:46:24.728Z,101808.56
2022-08-09T01:48:56.952Z,101805.06
2022-08-09T01:51:26.405Z,101809.53
2022-08-09T01:53:58.023Z,101800.72
2022-08-09T01:56:28.545Z,101799.97
2022-08-09T01:59:00.121Z,101795.75
2022-08-09T02:01:58.390Z,101797.56
2022-08-09T02:04:18.470Z,101806.50
2022-08-09T02:07:05.100Z,101811.81
2022-08-09T02:09:42.197Z,101806.66
2022-08-09T02:12:21.115Z,101813.88
2022-08-09T02:14:55.819Z,101799.13
2022-08-09T02:17:55.014Z,101808.88
2022-08-09T02:20:26.389Z,101817.00
2022-08-09T02:23:06.111Z,101810.72
2022-08-09T02:25:42.346Z,101816.09
2022-08-09T02:28:18.114Z,101814.47
2022-08-09T02:30:51.885Z,101821.56
2022-08-09T02:33:23.514Z,101812.84
2022-08-09T02:36:10.590Z,101812.03
2022-08-09T02:38:50.836Z,101810.28
2022-08-09T02:41:24.982Z,101807.63
2022-08-09T02:43:55.703Z,101811.13
2022-08-09T02:46:28.798Z,101814.69
2022-08-09T02:48:59.916Z,101807.75
2022-08-09T02:51:33.015Z,101806.00
2022-08-09T02:54:07.114Z,101802.63
2022-08-09T02:56:37.371Z,101802.63
2022-08-09T02:59:07.985Z,101805.31
2022-08-09T03:01:42.664Z,101802.69
2022-08-09T03:04:19.418Z,101804.44
2022-08-09T03:06:49.272Z,101806.22
2022-08-09T03:09:21.232Z,101806.28
2022-08-09T03:12:09.966Z,101803.66
2022-08-09T03:14:39.544Z,101811.63
2022-08-09T03:17:16.751Z,101814.34
2022-08-09T03:19:58.027Z,101810.00
2022-08-09T03:22:41.232Z,101813.56
2022-08-09T03:25:26.487Z,101805.66
2022-08-09T03:28:01.312Z,101823.25
2022-08-09T03:30:33.707Z,101815.47
2022-08-09T03:33:17.731Z,101817.22
2022-08-09T03:36:13.202Z,101819.81
2022-08-09T03:38:37.295Z,101820.75
2022-08-09T03:41:15.112Z,101826.03
2022-08-09T03:44:03.005Z,101836.59
2022-08-09T03:46:33.236Z,101836.66
2022-08-09T03:49:09.103Z,101830.50
2022-08-09T03:51:57.535Z,101829.59
2022-08-09T03:54:30.970Z,101832.22
2022-08-09T03:57:01.600Z,101832.25
2022-08-09T03:59:53.536Z,101837.63
2022-08-09T04:02:26.428Z,101838.56
2022-08-09T04:05:00.886Z,101849.09
2022-08-09T04:07:47.608Z,101841.13
2022-08-09T04:10:28.808Z,101830.53
2022-08-09T04:13:01.372Z,101848.97
2022-08-09T04:15:52.473Z,101841.78
2022-08-09T04:18:21.487Z,101842.53
2022-08-09T04:20:51.667Z,101850.25
2022-08-09T04:23:24.292Z,101855.56
2022-08-09T04:25:53.248Z,101861.75
2022-08-09T04:28:33.628Z,101859.19
2022-08-09T04:31:09.423Z,101859.25
2022-08-09T04:33:53.176Z,101864.44
2022-08-09T04:36:28.745Z,101861.69
2022-08-09T04:38:59.159Z,101866.94
2022-08-09T04:41:33.012Z,101867.66
2022-08-09T04:44:06.887Z,101874.53
2022-08-09T04:46:58.419Z,101875.19
2022-08-09T04:49:40.478Z,101869.59
2022-08-09T04:52:18.710Z,101880.63
2022-08-09T04:54:51.436Z,101877.69
2022-08-09T04:57:23.832Z,101882.59
2022-08-09T04:59:53.382Z,101883.94
2022-08-09T05:02:21.554Z,101877.34
2022-08-09T05:04:55.015Z,101888.41
2022-08-09T05:07:29.184Z,101890.50
2022-08-09T05:10:02.230Z,101889.97
2022-08-09T05:12:32.972Z,101891.69
2022-08-09T05:15:11.368Z,101886.63
2022-08-09T05:18:37.736Z,101889.78
2022-08-09T05:20:29.962Z,101882.50
2022-08-09T05:23:57.115Z,101882.88
2022-08-09T05:25:50.968Z,101879.44
2022-08-09T05:28:19.801Z,101887.22
2022-08-09T05:30:48.209Z,101893.97
2022-08-09T05:33:16.194Z,101891.31
2022-08-09T05:35:49.844Z,101887.03
2022-08-09T05:38:22.097Z,101886.22
2022-08-09T05:40:50.724Z,101889.81
2022-08-09T05:43:20.654Z,101891.31
2022-08-09T05:45:55.713Z,101895.53
2022-08-09T05:48:27.882Z,101899.25
2022-08-09T05:51:30.383Z,101900.34
2022-08-09T05:53:56.917Z,101901.56
2022-08-09T05:56:26.058Z,101898.34
2022-08-09T05:58:58.357Z,101897.31
2022-08-09T06:01:26.903Z,101903.97
2022-08-09T06:04:05.591Z,101907.56
2022-08-09T06:06:34.191Z,101907.63
2022-08-09T06:09:03.577Z,101906.13
2022-08-09T06:11:40.774Z,101907.81
2022-08-09T06:14:20.059Z,101910.81
2022-08-09T06:16:52.413Z,101910.75
2022-08-09T06:19:20.903Z,101913.84
2022-08-09T06:21:51.474Z,101918.66
2022-08-09T06:24:28.307Z,101914.19
2022-08-09T06:26:56.655Z,101915.41
2022-08-09T06:29:26.832Z,101921.34
2022-08-09T06:32:52.772Z,101921.16
2022-08-09T06:34:42.829Z,101913.66
2022-08-09T06:37:10.769Z,101917.19
2022-08-09T06:39:57.536Z,101916.88
2022-08-09T06:42:28.575Z,101921.22
2022-08-09T06:44:58.636Z,101921.94
2022-08-09T06:47:29.937Z,101921.09
2022-08-09T06:50:13.422Z,101931.56
2022-08-09T06:52:48.513Z,101935.94
2022-08-09T06:55:23.167Z,101929.28
2022-08-09T06:58:03.139Z,101933.25
2022-08-09T07:00:53.065Z,101938.34
2022-08-09T07:03:28.556Z,101941.13
2022-08-09T07:06:04.531Z,101942.09
2022-08-09T07:08:35.302Z,101931.59
2022-08-09T07:11:07.199Z,101923.88
2022-08-09T07:13:44.920Z,101931.47
2022-08-09T07:16:39.239Z,101931.06
2022-08-09T07:19:15.654Z,101936.25
2022-08-09T07:21:57.211Z,101935.97
2022-08-09T07:24:31.935Z,101935.84
2022-08-09T07:27:33.154Z,101935.72
2022-08-09T07:29:59.940Z,101932.38
2022-08-09T07:32:32.605Z,101936.47
2022-08-09T07:35:02.823Z,101928.38
2022-08-09T07:37:43.123Z,101927.13
2022-08-09T07:40:14.074Z,101929.38
2022-08-09T07:42:52.456Z,101927.44
2022-08-09T07:45:38.373Z,101926.53
2022-08-09T07:48:28.818Z,101932.63
2022-08-09T07:51:09.329Z,101927.69
2022-08-09T07:54:05.072Z,101918.25
2022-08-09T07:56:45.116Z,101921.56
2022-08-09T07:59:25.412Z,101928.09
2022-08-09T08:02:03.041Z,101922.66
2022-08-09T08:04:32.934Z,101918.13
2022-08-09T08:07:15.566Z,101918.59
2022-08-09T08:10:04.775Z,101919.66
2022-08-09T08:12:37.418Z,101930.38
2022-08-09T08:15:16.400Z,101922.47
2022-08-09T08:17:53.973Z,101924.88
2022-08-09T08:20:27.180Z,101922.41
2022-08-09T08:23:03.452Z,101922.91
2022-08-09T08:25:44.629Z,101923.16
2022-08-09T08:28:15.556Z,101925.97
2022-08-09T08:30:48.606Z,101925.34
2022-08-09T08:33:23.676Z,101920.53
2022-08-09T08:35:59.765Z,101920.09
2022-08-09T08:38:29.517Z,101920.34
2022-08-09T08:40:58.757Z,101928.06
2022-08-09T08:43:27.718Z,101924.94
2022-08-09T08:46:32.565Z,101928.22
2022-08-09T08:48:53.946Z,101923.81
2022-08-09T08:51:23.316Z,101928.47
2022-08-09T08:54:03.479Z,101923.31
2022-08-09T08:56:37.866Z,101928.44
2022-08-09T08:59:19.222Z,101923.50
2022-08-09T09:01:57.118Z,101914.09
2022-08-09T09:04:29.973Z,101920.59
2022-08-09T09:07:08.417Z,101918.06
2022-08-09T09:09:58.507Z,101916.38
2022-08-09T09:12:31.195Z,101914.53
2022-08-09T09:15:03.254Z,101920.03
2022-08-09T09:17:49.021Z,101925.28
2022-08-09T09:20:21.678Z,101921.47
2022-08-09T09:22:55.467Z,101933.03
2022-08-09T09:26:01.188Z,101928.00
2022-08-09T09:29:02.091Z,101930.03
2022-08-09T09:32:06.956Z,101918.91
2022-08-09T09:34:18.395Z,101927.91
2022-08-09T09:36:53.902Z,101925.94
2022-08-09T09:39:25.575Z,101924.88
2022-08-09T09:42:24.525Z,101932.00
2022-08-09T09:44:58.750Z,101920.63
2022-08-09T09:47:28.462Z,101927.25
2022-08-09T09:50:14.520Z,101928.13
2022-08-09T09:52:53.687Z,101909.38
2022-08-09T09:55:27.947Z,101910.16
2022-08-09T09:58:17.089Z,101910.53
2022-08-09T10:00:52.970Z,101911.53
2022-08-09T10:03:44.692Z,101906.34
2022-08-09T10:06:26.410Z,101912.09
2022-08-09T10:09:02.981Z,101911.88
2022-08-09T10:11:59.193Z,101914.00
2022-08-09T10:14:33.610Z,101904.72
2022-08-09T10:17:39.791Z,101901.19
2022-08-09T10:19:59.342Z,101898.97
2022-08-09T10:22:34.902Z,101888.25
2022-08-09T10:25:10.959Z,101900.19
2022-08-09T10:27:57.290Z,101889.47
2022-08-09T10:34:04.761Z,101886.50
2022-08-09T10:36:04.622Z,101888.03
2022-08-09T10:38:56.403Z,101895.31
2022-08-09T10:41:22.394Z,101882.34
2022-08-09T10:44:00.889Z,101883.75
2022-08-09T10:46:54.617Z,101876.66
2022-08-09T10:49:50.879Z,101882.53
2022-08-09T10:52:44.507Z,101872.19
2022-08-09T10:55:25.869Z,101880.53
2022-08-09T10:57:55.533Z,101872.88
2022-08-09T11:01:11.031Z,101877.81
2022-08-09T11:03:50.474Z,101875.69
2022-08-09T11:06:25.539Z,101866.59
2022-08-09T11:08:54.121Z,101866.94
2022-08-09T11:11:23.973Z,101865.81
2022-08-09T11:14:28.474Z,101867.34
2022-08-09T11:16:56.893Z,101868.13
2022-08-09T11:20:11.265Z,101856.53
2022-08-09T11:23:10.382Z,101859.34
2022-08-09T11:25:49.409Z,101859.41
2022-08-09T11:28:38.859Z,101845.06
2022-08-09T11:31:48.885Z,101847.50
2022-08-09T11:34:35.041Z,101850.88
2022-08-09T11:37:07.141Z,101854.22
2022-08-09T11:40:01.612Z,101852.81
2022-08-09T11:42:46.962Z,101852.13
2022-08-09T11:45:23.070Z,101847.88
2022-08-09T11:48:01.302Z,101846.50
2022-08-09T11:51:21.324Z,101843.88
2022-08-09T11:54:27.702Z,101841.84
2022-08-09T11:57:47.416Z,101842.94
2022-08-09T12:00:31.041Z,101841.56
2022-08-09T12:03:10.014Z,101831.97
2022-08-09T12:05:52.254Z,101834.88
2022-08-09T12:08:23.032Z,101835.06
2022-08-09T12:10:55.319Z,101830.50
2022-08-09T12:14:09.855Z,101824.59
2022-08-09T12:16:37.334Z,101822.75
2022-08-09T12:19:08.044Z,101821.81
2022-08-09T12:21:50.522Z,101824.69
2022-08-09T12:24:25.206Z,101830.63
2022-08-09T12:28:58.371Z,101821.47
2022-08-09T12:29:59.965Z,101814.75
2022-08-09T12:32:45.371Z,101811.59
2022-08-09T12:35:21.624Z,101808.19
2022-08-09T12:37:52.513Z,101816.19
2022-08-09T12:40:27.470Z,101808.63
2022-08-09T12:42:56.195Z,101802.97
2022-08-09T12:45:34.178Z,101803.78
2022-08-09T12:48:19.955Z,101803.28
2022-08-09T12:50:59.418Z,101792.66
2022-08-09T12:53:36.907Z,101800.47
2022-08-09T12:56:43.337Z,101795.38
2022-08-09T12:59:08.744Z,101800.47
2022-08-09T13:01:47.019Z,101793.88
2022-08-09T13:04:33.127Z,101789.13
2022-08-09T13:07:14.001Z,101787.16
2022-08-09T13:09:45.462Z,101786.34
2022-08-09T13:12:24.307Z,101777.28
2022-08-09T13:14:54.919Z,101771.69
2022-08-09T13:17:58.793Z,101777.25
2022-08-09T13:20:20.222Z,101777.97
2022-08-09T13:23:05.801Z,101772.31
2022-08-09T13:25:42.556Z,101779.78
2022-08-09T13:28:14.222Z,101777.97
2022-08-09T13:32:14.185Z,101767.16
2022-08-09T13:33:54.513Z,101760.28
2022-08-09T13:36:40.216Z,101757.34
2022-08-09T13:41:50.598Z,101758.97
2022-08-09T13:42:02.284Z,101760.59
2022-08-09T13:44:31.063Z,101760.72
2022-08-09T13:47:19.404Z,101761.81
2022-08-09T13:49:58.203Z,101752.47
2022-08-09T13:52:31.107Z,101746.06
2022-08-09T13:55:05.049Z,101758.38
2022-08-09T13:57:40.346Z,101758.94
2022-08-09T14:00:15.520Z,101756.00
2022-08-09T14:03:17.189Z,101747.97
2022-08-09T14:05:56.769Z,101749.59
2022-08-09T14:08:24.050Z,101745.44
2022-08-09T14:10:55.285Z,101740.47
2022-08-09T14:14:15.339Z,101741.88
2022-08-09T14:16:14.895Z,101742.72
2022-08-09T14:18:49.406Z,101744.16
2022-08-09T14:21:20.576Z,101740.81
2022-08-09T14:23:55.620Z,101743.88
2022-08-09T14:26:32.064Z,101736.31
2022-08-09T14:29:02.670Z,101729.84
2022-08-09T14:31:50.111Z,101735.31
2022-08-09T14:34:27.221Z,101741.81
2022-08-09T14:37:00.248Z,101739.81
2022-08-09T14:39:40.228Z,101736.75
2022-08-09T14:42:30.847Z,101731.72
2022-08-09T14:46:51.253Z,101731.03
2022-08-09T14:47:58.407Z,101720.19
2022-08-09T14:50:28.954Z,101728.78
2022-08-09T14:52:56.864Z,101733.44
2022-08-09T14:55:32.095Z,101732.13
2022-08-09T14:58:03.326Z,101725.16
2022-08-09T15:00:33.288Z,101719.38
2022-08-09T15:03:03.840Z,101729.00
2022-08-09T15:05:32.624Z,101723.53
2022-08-09T15:08:00.954Z,101716.28
2022-08-09T15:10:32.433Z,101719.69
2022-08-09T15:13:01.499Z,101724.44
2022-08-09T15:15:34.331Z,101720.69
2022-08-09T15:18:08.190Z,101722.78
2022-08-09T15:21:57.067Z,101727.94
2022-08-09T15:24:03.689Z,101717.72
2022-08-09T15:26:18.766Z,101716.06
2022-08-09T15:28:56.476Z,101714.00
2022-08-09T15:31:40.950Z,101710.84
2022-08-09T15:34:32.304Z,101710.56
2022-08-09T15:36:59.002Z,101714.53
2022-08-09T15:39:34.437Z,101703.41
2022-08-09T15:42:13.296Z,101703.91
2022-08-09T15:44:42.899Z,101697.25
2022-08-09T15:47:13.962Z,101704.19
2022-08-09T15:49:48.473Z,101695.09
2022-08-09T15:52:30.430Z,101691.25
2022-08-09T15:54:58.297Z,101692.00
2022-08-09T15:57:35.350Z,101688.25
2022-08-09T16:00:17.066Z,101684.44
2022-08-09T16:02:54.660Z,101686.00
2022-08-09T16:05:26.386Z,101677.38
2022-08-09T16:07:54.279Z,101681.75
2022-08-09T16:10:54.911Z,101678.63
2022-08-09T16:13:20.784Z,101677.41
2022-08-09T16:16:04.697Z,101678.97
2022-08-09T16:18:45.072Z,101678.00
2022-08-09T16:21:17.607Z,101689.28
2022-08-09T16:23:55.449Z,101685.16
2022-08-09T16:26:35.216Z,101682.13
2022-08-09T16:29:11.713Z,101685.97
2022-08-09T16:32:19.834Z,101684.47
2022-08-09T16:34:55.743Z,101684.03
2022-08-09T16:37:18.248Z,101689.16
2022-08-09T16:39:54.643Z,101691.78
2022-08-09T16:42:33.931Z,101685.38
2022-08-09T16:45:03.720Z,101684.66
2022-08-09T16:48:39.114Z,101692.75
2022-08-09T16:50:32.752Z,101689.81
2022-08-09T16:53:02.360Z,101683.47
2022-08-09T16:55:58.531Z,101686.44
2022-08-09T16:58:19.510Z,101696.59
2022-08-09T17:00:50.965Z,101687.06
2022-08-09T17:03:21.537Z,101684.06
2022-08-09T17:06:07.950Z,101681.63
2022-08-09T17:09:01.413Z,101681.91
2022-08-09T17:11:40.013Z,101684.13
2022-08-09T17:14:25.771Z,101685.56
2022-08-09T17:17:00.986Z,101693.38
2022-08-09T17:20:05.147Z,101687.16
2022-08-09T17:22:24.708Z,101697.06
2022-08-09T17:25:02.585Z,101691.31
2022-08-09T17:27:32.333Z,101689.09
2022-08-09T17:30:00.162Z,101697.53
2022-08-09T17:32:38.059Z,101692.78
2022-08-09T17:35:11.382Z,101696.84
2022-08-09T17:38:11.747Z,101696.88
2022-08-09T17:40:31.921Z,101704.81
2022-08-09T17:43:03.158Z,101699.13
2022-08-09T17:46:02.016Z,101696.09
2022-08-09T17:48:29.598Z,101705.44
2022-08-09T17:51:06.587Z,101697.75
2022-08-09T17:53:47.983Z,101701.41
2022-08-09T17:56:21.029Z,101712.31
2022-08-09T17:58:49.114Z,101706.53
2022-08-09T18:01:22.497Z,101710.88
2022-08-09T18:03:54.577Z,101702.38
2022-08-09T18:06:31.625Z,101709.94
2022-08-09T18:09:03.560Z,101707.31
2022-08-09T18:12:04.944Z,101710.28
2022-08-09T18:14:22.700Z,101707.69
2022-08-09T18:16:50.804Z,101709.78
2022-08-09T18:20:54.793Z,101719.38
2022-08-09T18:22:16.799Z,101714.00
2022-08-09T18:24:46.422Z,101715.81
2022-08-09T18:27:18.757Z,101715.72
2022-08-09T18:30:42.123Z,101710.56
2022-08-09T18:32:54.231Z,101714.78
2022-08-09T18:35:48.055Z,101727.91
2022-08-09T18:38:12.815Z,101725.00
2022-08-09T18:40:40.823Z,101725.09
2022-08-09T18:43:08.863Z,101726.28
2022-08-09T18:46:49.767Z,101729.75
2022-08-09T18:48:25.564Z,101728.22
2022-08-09T18:50:59.858Z,101737.06
2022-08-09T18:53:53.054Z,101734.97
2022-08-09T18:56:17.876Z,101743.34
2022-08-09T18:58:55.320Z,101746.00
2022-08-09T19:01:23.696Z,101740.09
2022-08-09T19:04:01.829Z,101751.09
2022-08-09T19:06:38.519Z,101747.66
2022-08-09T19:09:07.350Z,101748.75
2022-08-09T19:11:38.314Z,101755.25
2022-08-09T19:14:06.742Z,101751.63
2022-08-09T19:16:36.720Z,101755.19
2022-08-09T19:19:25.257Z,101765.03
2022-08-09T19:22:06.730Z,101767.19
2022-08-09T19:25:11.304Z,101768.19
2022-08-09T19:27:28.540Z,101778.19
2022-08-09T19:30:25.033Z,101774.44
2022-08-09T19:32:45.445Z,101778.66
2022-08-09T19:35:17.159Z,101778.25
2022-08-09T19:37:56.286Z,101782.44
2022-08-09T19:40:33.433Z,101793.66
2022-08-09T19:43:03.827Z,101794.44
2022-08-09T19:45:40.263Z,101786.03
2022-08-09T19:48:11.777Z,101788.91
2022-08-09T19:50:50.205Z,101785.66
2022-08-09T19:53:26.502Z,101788.59
2022-08-09T19:56:06.204Z,101790.03
2022-08-09T19:58:38.421Z,101788.03
2022-08-09T20:01:08.233Z,101784.75
2022-08-09T20:04:09.978Z,101795.16
2022-08-09T20:06:29.833Z,101798.03
2022-08-09T20:09:00.917Z,101796.16
2022-08-09T20:11:42.817Z,101801.69
2022-08-09T20:14:15.643Z,101793.59
2022-08-09T20:16:53.758Z,101795.28
2022-08-09T20:19:47.544Z,101787.53
2022-08-09T20:22:14.507Z,101797.38
2022-08-09T20:24:53.392Z,101805.38
2022-08-09T20:27:22.529Z,101794.63
2022-08-09T20:29:50.758Z,101804.97
2022-08-09T20:32:33.157Z,101804.19
2022-08-09T20:35:02.326Z,101804.28
2022-08-09T20:37:37.845Z,101797.50
2022-08-09T20:40:27.056Z,101798.81
2022-08-09T20:43:12.355Z,101803.97
2022-08-09T20:46:00.610Z,101796.97
2022-08-09T20:48:32.453Z,101805.22
2022-08-09T20:51:01.194Z,101803.31
2022-08-09T20:53:37.679Z,101804.97
2022-08-09T20:56:19.866Z,101804.88
2022-08-09T20:58:48.666Z,101800.47
2022-08-09T21:01:34.175Z,101806.09
2022-08-09T21:05:49.798Z,101801.50
2022-08-09T21:06:53.242Z,101799.53
2022-08-09T21:09:24.905Z,101802.28
2022-08-09T21:14:42.338Z,101792.47
2022-08-09T21:18:11.526Z,101802.38
2022-08-09T21:20:22.978Z,101798.81
2022-08-09T21:22:53.879Z,101793.06
2022-08-09T21:25:44.411Z,101796.13
2022-08-09T21:28:33.721Z,101794.94
2022-08-09T21:31:16.461Z,101791.41
2022-08-09T21:33:44.809Z,101796.22
2022-08-09T21:36:12.815Z,101792.59
2022-08-09T21:38:40.644Z,101797.72
2022-08-09T21:41:08.586Z,101796.59
2022-08-09T21:43:56.898Z,101791.97
2022-08-09T21:46:27.648Z,101788.03
2022-08-09T21:48:58.467Z,101784.75
2022-08-09T21:51:36.484Z,101790.44
2022-08-09T21:54:12.039Z,101795.22
2022-08-09T21:56:44.683Z,101790.00
2022-08-09T21:59:25.671Z,101794.38
2022-08-09T22:01:59.183Z,101790.22
2022-08-09T22:04:55.111Z,101794.78
2022-08-09T22:07:35.265Z,101788.75
2022-08-09T22:10:06.951Z,101798.31
2022-08-09T22:12:35.105Z,101787.81
2022-08-09T22:15:13.887Z,101787.09
2022-08-09T22:17:46.326Z,101795.03
2022-08-09T22:20:17.101Z,101790.41
2022-08-09T22:22:50.645Z,101796.38
2022-08-09T22:26:08.247Z,101801.16
2022-08-09T22:28:07.593Z,101801.47
2022-08-09T22:30:36.876Z,101807.44
2022-08-09T22:33:09.182Z,101806.72
2022-08-09T22:36:02.531Z,101806.63
2022-08-09T22:38:26.310Z,101808.50
2022-08-09T22:40:57.941Z,101811.41
2022-08-09T22:44:03.735Z,101805.44
2022-08-09T22:48:15.883Z,101817.34
2022-08-09T22:49:10.021Z,101815.38
2022-08-09T22:51:39.437Z,101820.50
2022-08-09T22:54:11.836Z,101822.88
2022-08-09T22:56:41.349Z,101824.50
2022-08-09T22:59:58.021Z,101833.56
2022-08-09T23:01:59.739Z,101833.38
2022-08-09T23:04:27.748Z,101827.22
2022-08-09T23:07:18.446Z,101829.63
2022-08-09T23:10:06.780Z,101831.50
2022-08-09T23:12:34.663Z,101830.50
2022-08-09T23:15:02.536Z,101835.25
2022-08-09T23:17:31.909Z,101836.00
2022-08-09T23:20:01.054Z,101831.91
2022-08-09T23:22:35.833Z,101837.22
2022-08-09T23:25:03.979Z,101832.50
2022-08-09T23:27:31.993Z,101834.88
2022-08-09T23:30:00.341Z,101834.28
2022-08-09T23:32:28.545Z,101843.03
2022-08-09T23:34:57.744Z,101847.75
2022-08-09T23:37:25.771Z,101842.53
2022-08-09T23:39:53.745Z,101849.63
2022-08-09T23:42:21.634Z,101837.00
2022-08-09T23:44:49.576Z,101835.56
2022-08-09T23:47:17.477Z,101833.16
2022-08-09T23:49:45.401Z,101840.22
2022-08-09T23:52:14.592Z,101835.94
2022-08-09T23:54:45.359Z,101837.03
2022-08-09T23:57:14.482Z,101838.69
